Time;durP1;ratioP1;P1;durP2;ratioP2;P2;SDS_P1;SDS_P2;PMS_P1;PMS_P2;Temp;Humidity;BMP_temperature;BMP_pressure;BME280_temperature;BME280_humidity;BME280_pressure;Samples;Min_cycle;Max_cycle;Signal;HPM_P1;HPM_P2
2022/11/25 00:00:05;;;;;;;9.57;6.47;;;;;;;3.82;98.86;99989.28;5103126;28;20514;-63
2022/11/25 00:02:32;;;;;;;16.93;6.77;;;;;;;3.70;99.49;99982.19;5090823;28;20461;-63
2022/11/25 00:04:59;;;;;;;11.67;5.73;;;;;;;3.84;100.00;99975.97;5090922;28;20508;-63
2022/11/25 00:07:27;;;;;;;10.53;6.50;;;;;;;3.76;100.00;99982.59;5082131;28;20531;-63
2022/11/25 00:09:53;;;;;;;12.47;5.90;;;;;;;3.73;100.00;99979.31;5093678;28;20483;-63
2022/11/25 00:12:20;;;;;;;8.80;5.23;;;;;;;3.73;100.00;99982.81;5099745;28;20514;-63
2022/11/25 00:14:47;;;;;;;11.37;5.70;;;;;;;3.72;100.00;99991.69;5062429;28;20491;-62
2022/11/25 00:17:13;;;;;;;7.90;5.80;;;;;;;3.72;100.00;99994.34;5076030;28;20524;-63
2022/11/25 00:19:40;;;;;;;18.70;6.40;;;;;;;3.69;100.00;99985.75;5099725;28;20521;-63
2022/11/25 00:22:06;;;;;;;11.47;6.40;;;;;;;3.79;100.00;99975.41;5081486;28;20499;-63
2022/11/25 00:24:34;;;;;;;14.57;6.10;;;;;;;3.76;100.00;99960.59;5081342;28;20481;-63
2022/11/25 00:27:03;;;;;;;10.77;5.17;;;;;;;3.75;100.00;99957.13;5081781;28;20540;-62
2022/11/25 00:29:30;;;;;;;9.90;5.87;;;;;;;3.72;100.00;99953.84;5081526;28;20461;-63
2022/11/25 00:32:00;;;;;;;16.20;5.83;;;;;;;3.66;100.00;99949.78;5090809;28;20499;-63
2022/11/25 00:34:26;;;;;;;14.53;6.57;;;;;;;3.68;100.00;99945.25;5083835;28;20505;-63
2022/11/25 00:36:53;;;;;;;12.73;6.40;;;;;;;3.73;100.00;99942.28;5081237;28;20502;-62
2022/11/25 00:39:23;;;;;;;9.33;5.87;;;;;;;3.65;100.00;99947.28;5086384;28;20646;-62
2022/11/25 00:44:35;;;;;;;14.00;6.40;;;;;;;3.52;100.00;99944.59;5095065;28;20458;-63
2022/11/25 00:47:02;;;;;;;15.50;7.90;;;;;;;3.50;100.00;99949.13;5099142;28;20498;-63
2022/11/25 00:49:28;;;;;;;24.00;7.37;;;;;;;3.47;100.00;99954.63;5085166;28;20463;-63
2022/11/25 00:51:55;;;;;;;18.47;6.77;;;;;;;3.54;100.00;99951.47;5091315;28;20512;-63
2022/11/25 00:54:22;;;;;;;21.07;7.43;;;;;;;3.46;100.00;99947.66;5090779;28;20472;-63
2022/11/25 00:56:49;;;;;;;15.37;7.60;;;;;;;3.46;100.00;99947.66;5081215;28;20491;-63
2022/11/25 00:59:17;;;;;;;16.30;6.60;;;;;;;3.48;100.00;99958.97;5091232;28;20519;-63
2022/11/25 01:01:44;;;;;;;11.00;5.90;;;;;;;3.49;100.00;99955.38;5080747;28;20472;-63
2022/11/25 01:04:10;;;;;;;17.40;6.97;;;;;;;3.39;100.00;99955.16;5084686;28;20482;-63
2022/11/25 01:06:40;;;;;;;13.13;8.23;;;;;;;3.47;100.00;99954.63;5095782;28;20506;-63
2022/11/25 01:09:08;;;;;;;8.30;6.27;;;;;;;3.41;100.00;99952.41;5081111;28;20474;-63
2022/11/25 01:11:35;;;;;;;15.40;7.63;;;;;;;3.38;100.00;99953.44;5075976;28;20617;-63
2022/11/25 01:14:02;;;;;;;13.67;7.57;;;;;;;3.20;100.00;99947.59;5097340;28;20813;-63
2022/11/25 01:16:30;;;;;;;12.27;7.57;;;;;;;3.24;100.00;99941.16;5101074;28;20475;-63
2022/11/25 01:18:58;;;;;;;12.70;7.40;;;;;;;3.17;100.00;99939.84;5099954;28;20483;-63
2022/11/25 01:21:26;;;;;;;10.00;6.83;;;;;;;3.23;100.00;99942.09;5094301;28;20479;-63
2022/11/25 01:23:53;;;;;;;16.70;8.90;;;;;;;3.23;100.00;99939.47;5101439;28;21012;-63
2022/11/25 01:26:21;;;;;;;16.63;8.90;;;;;;;3.19;100.00;99936.19;5067603;28;20893;-64
2022/11/25 01:28:49;;;;;;;14.07;7.73;;;;;;;3.18;100.00;99934.47;5089323;28;21055;-64
2022/11/25 01:31:17;;;;;;;16.50;7.50;;;;;;;3.20;100.00;99926.47;5100233;28;20475;-64
2022/11/25 01:33:46;;;;;;;9.83;7.10;;;;;;;3.19;100.00;99925.63;5082977;28;20439;-63
2022/11/25 01:36:14;;;;;;;13.00;7.30;;;;;;;3.21;100.00;99938.69;5080120;28;20507;-63
2022/11/25 01:38:41;;;;;;;16.83;7.70;;;;;;;3.18;100.00;99937.13;5084889;28;20480;-63
2022/11/25 01:41:10;;;;;;;12.50;7.93;;;;;;;3.28;100.00;99947.94;5080021;28;20635;-63
2022/11/25 01:43:37;;;;;;;13.43;8.57;;;;;;;3.36;100.00;99934.19;5080651;28;20490;-63
2022/11/25 01:46:07;;;;;;;13.33;7.33;;;;;;;3.36;100.00;99936.84;5080467;28;20571;-63
2022/11/25 01:48:39;;;;;;;10.30;7.10;;;;;;;3.34;100.00;99938.75;5079662;28;20479;-62
2022/11/25 01:51:16;;;;;;;18.10;7.63;;;;;;;3.36;100.00;99940.31;5079697;28;20570;-63
2022/11/25 01:53:43;;;;;;;16.57;7.93;;;;;;;3.40;100.00;99927.75;5086912;28;20471;-63
2022/11/25 01:56:09;;;;;;;15.60;8.20;;;;;;;3.45;100.00;99940.66;5095255;28;20504;-63
2022/11/25 01:58:37;;;;;;;17.37;8.43;;;;;;;3.44;100.00;99933.69;5085402;28;20487;-63
2022/11/25 02:01:04;;;;;;;17.87;8.07;;;;;;;3.39;100.00;99942.78;5099076;28;20491;-63
2022/11/25 02:03:36;;;;;;;11.63;8.10;;;;;;;3.46;100.00;99932.66;5100043;28;20430;-63
2022/11/25 02:06:07;;;;;;;14.70;7.73;;;;;;;3.53;100.00;99933.91;5080332;28;20453;-63
2022/11/25 02:08:34;;;;;;;10.07;7.27;;;;;;;3.50;100.00;99931.47;5091405;28;20488;-62
2022/11/25 02:11:03;;;;;;;14.33;7.90;;;;;;;3.60;100.00;99929.06;5081961;28;20499;-62
2022/11/25 02:13:31;;;;;;;17.73;8.30;;;;;;;3.58;100.00;99920.41;5089416;28;20431;-63
2022/11/25 02:15:57;;;;;;;23.07;8.63;;;;;;;3.57;100.00;99923.97;5083260;28;20503;-62
2022/11/25 02:18:25;;;;;;;11.13;6.90;;;;;;;3.60;100.00;99917.66;5083975;28;20984;-62
2022/11/25 02:20:52;;;;;;;16.03;7.83;;;;;;;3.51;100.00;99919.13;5083150;28;20503;-63
2022/11/25 02:23:27;;;;;;;19.07;8.50;;;;;;;3.62;100.00;99915.75;5089886;28;20478;-63
2022/11/25 02:25:55;;;;;;;20.73;7.83;;;;;;;3.77;100.00;99926.13;5093160;28;20467;-63
2022/11/25 02:28:24;;;;;;;17.43;7.57;;;;;;;3.82;100.00;99923.19;5093172;28;20530;-63
2022/11/25 02:30:51;;;;;;;18.83;8.00;;;;;;;3.84;100.00;99925.72;5087756;28;20567;-63
2022/11/25 02:33:18;;;;;;;16.40;7.90;;;;;;;3.83;100.00;99924.00;5084666;28;20435;-63
2022/11/25 02:35:47;;;;;;;13.90;8.07;;;;;;;3.90;100.00;99919.97;5087954;28;20554;-63
2022/11/25 02:38:16;;;;;;;14.70;8.00;;;;;;;3.98;100.00;99912.38;5104088;28;20466;-63
2022/11/25 02:40:46;;;;;;;11.60;7.03;;;;;;;3.89;100.00;99910.34;5063426;28;20577;-63
2022/11/25 02:43:14;;;;;;;10.80;6.97;;;;;;;3.95;100.00;99907.28;5075814;28;20440;-62
2022/11/25 02:45:55;;;;;;;11.70;7.20;;;;;;;3.95;99.98;99905.47;5083609;28;20499;-63
2022/11/25 02:48:22;;;;;;;16.70;7.60;;;;;;;3.90;100.00;99901.47;5083603;28;20490;-62
2022/11/25 02:50:49;;;;;;;10.67;6.70;;;;;;;3.87;100.00;99907.84;5096107;28;20484;-63
2022/11/25 02:53:16;;;;;;;15.07;7.27;;;;;;;4.01;100.00;99900.72;5084342;28;20440;-63
2022/11/25 02:55:42;;;;;;;13.43;7.03;;;;;;;4.09;100.00;99915.09;5083637;28;20483;-63
2022/11/25 02:58:09;;;;;;;15.00;6.37;;;;;;;4.15;99.84;99911.19;5101485;28;20483;-62
2022/11/25 03:00:37;;;;;;;15.87;6.73;;;;;;;4.17;99.73;99911.06;5088309;28;20513;-62
2022/11/25 03:03:04;;;;;;;15.87;7.53;;;;;;;4.11;99.67;99913.22;5094112;28;20471;-63
2022/11/25 03:05:31;;;;;;;10.80;6.80;;;;;;;4.10;99.56;99913.31;5086320;28;20505;-62
2022/11/25 03:07:57;;;;;;;9.47;6.07;;;;;;;4.07;99.65;99902.94;5086721;28;20480;-62
2022/11/25 03:10:24;;;;;;;18.00;7.00;;;;;;;4.07;99.99;99905.59;5082730;28;21052;-62
2022/11/25 03:12:50;;;;;;;12.87;6.03;;;;;;;4.14;100.00;99902.41;5083668;28;20511;-62
2022/11/25 03:15:17;;;;;;;18.07;6.27;;;;;;;4.08;100.00;99904.63;5082669;28;20464;-62
2022/11/25 03:17:48;;;;;;;10.17;5.87;;;;;;;4.12;100.00;99901.66;5083265;28;20480;-63
2022/11/25 03:20:15;;;;;;;18.37;7.50;;;;;;;4.17;100.00;99917.22;5088365;28;20494;-62
2022/11/25 03:22:41;;;;;;;13.63;6.00;;;;;;;4.11;100.00;99907.06;5103519;28;20496;-63
2022/11/25 03:25:09;;;;;;;15.23;6.17;;;;;;;4.20;100.00;99901.13;5088943;28;20937;-63
2022/11/25 03:27:36;;;;;;;9.53;5.30;;;;;;;4.15;100.00;99900.63;5083264;28;20544;-63
2022/11/25 03:30:05;;;;;;;13.07;6.20;;;;;;;4.24;100.00;99897.31;5082775;28;20487;-62
2022/11/25 03:32:31;;;;;;;12.53;5.70;;;;;;;4.20;100.00;99890.56;5082805;28;20500;-62
2022/11/25 03:34:59;;;;;;;17.33;5.03;;;;;;;4.19;100.00;99893.31;5085523;28;20492;-63
2022/11/25 03:37:26;;;;;;;13.20;5.43;;;;;;;4.19;100.00;99893.31;5085492;28;20504;-63
2022/11/25 03:39:52;;;;;;;9.80;5.80;;;;;;;4.21;100.00;99892.22;5103235;28;20518;-63
2022/11/25 03:42:19;;;;;;;13.37;5.50;;;;;;;4.21;100.00;99892.22;5088602;28;20500;-63
2022/11/25 03:44:45;;;;;;;11.60;6.63;;;;;;;4.23;100.00;99884.19;5082630;28;20971;-63
2022/11/25 03:47:12;;;;;;;11.10;5.40;;;;;;;4.26;100.00;99881.34;5082398;28;20539;-63
2022/11/25 03:49:39;;;;;;;7.07;5.20;;;;;;;4.23;100.00;99882.38;5087392;28;20475;-63
2022/11/25 03:52:07;;;;;;;19.10;6.53;;;;;;;4.23;100.00;99879.72;5092171;28;20563;-63
2022/11/25 03:54:33;;;;;;;18.97;5.90;;;;;;;4.27;100.00;99891.81;5082740;28;20467;-62
2022/11/25 03:57:00;;;;;;;9.90;5.03;;;;;;;4.30;100.00;99878.34;5082301;28;20524;-63
2022/11/25 03:59:26;;;;;;;14.20;6.10;;;;;;;4.37;100.00;99883.19;5082857;28;20493;-63
2022/11/25 04:01:53;;;;;;;6.50;5.43;;;;;;;4.41;100.00;99879.38;5082359;28;20500;-63
2022/11/25 04:04:20;;;;;;;14.93;4.87;;;;;;;4.40;100.00;99867.94;5090699;28;20491;-63
2022/11/25 04:06:46;;;;;;;14.73;6.23;;;;;;;4.42;100.00;99867.84;5102198;28;20503;-63
2022/11/25 04:09:14;;;;;;;13.50;5.73;;;;;;;4.50;100.00;99868.97;5086189;28;20488;-64
2022/11/25 04:14:25;;;;;;;11.00;4.33;;;;;;;4.48;100.00;99856.81;5099161;28;20532;-63
2022/11/25 04:16:52;;;;;;;11.53;5.33;;;;;;;4.52;100.00;99871.50;5091923;28;20502;-64
2022/11/25 04:19:19;;;;;;;14.97;5.17;;;;;;;4.63;100.00;99865.44;5086069;28;20523;-64
2022/11/25 04:21:45;;;;;;;11.70;5.53;;;;;;;4.60;100.00;99876.25;5081383;28;20575;-63
2022/11/25 04:24:13;;;;;;;13.00;5.07;;;;;;;4.65;100.00;99867.03;5081795;28;20977;-65
2022/11/25 04:26:40;;;;;;;7.10;3.90;;;;;;;4.64;100.00;99869.78;5099053;28;20535;-64
2022/11/25 04:29:07;;;;;;;8.27;4.90;;;;;;;4.70;100.00;99879.91;5091544;28;20543;-64
2022/11/25 04:31:33;;;;;;;11.57;4.50;;;;;;;4.67;100.00;99875.69;5083372;28;20550;-63
2022/11/25 04:34:00;;;;;;;9.53;4.57;;;;;;;4.74;100.00;99883.19;5081920;28;20493;-64
2022/11/25 04:36:26;;;;;;;8.27;5.00;;;;;;;4.79;100.00;99886.34;5094394;28;20548;-64
2022/11/25 04:38:53;;;;;;;11.70;4.40;;;;;;;4.74;100.00;99885.81;5081023;28;20452;-64
2022/11/25 04:41:21;;;;;;;11.83;4.27;;;;;;;4.82;100.00;99886.13;5085190;28;20567;-63
2022/11/25 04:43:48;;;;;;;11.20;4.67;;;;;;;4.81;100.00;99895.00;5081694;28;20803;-64
2022/11/25 04:46:16;;;;;;;12.20;4.87;;;;;;;4.83;100.00;99893.94;5084219;28;20480;-64
2022/11/25 04:48:43;;;;;;;13.20;5.33;;;;;;;4.85;100.00;99878.78;5080883;28;20525;-64
2022/11/25 04:51:09;;;;;;;8.97;4.30;;;;;;;4.89;100.00;99888.19;5088563;28;20538;-63
2022/11/25 04:53:36;;;;;;;9.40;4.40;;;;;;;4.89;100.00;99893.47;5099002;28;20516;-63
2022/11/25 04:56:02;;;;;;;10.90;4.30;;;;;;;4.90;100.00;99892.53;5085480;28;20563;-62
2022/11/25 05:01:14;;;;;;;8.40;5.10;;;;;;;5.02;100.00;99897.91;5080717;28;20491;-63
2022/11/25 05:03:41;;;;;;;11.70;5.23;;;;;;;5.07;99.99;99906.34;5081579;28;20433;-63
2022/11/25 05:06:09;;;;;;;18.00;5.07;;;;;;;5.05;99.95;99911.78;5085655;28;20607;-63
2022/11/25 05:08:36;;;;;;;9.37;4.90;;;;;;;5.22;99.75;99915.78;5091963;28;20456;-63
2022/11/25 05:11:02;;;;;;;14.13;5.03;;;;;;;5.15;99.68;99916.38;5080423;28;20508;-63
2022/11/25 05:13:30;;;;;;;18.23;4.97;;;;;;;5.18;99.65;99917.00;5085538;28;20475;-63
2022/11/25 05:15:58;;;;;;;14.87;4.73;;;;;;;5.19;99.55;99909.88;5091130;28;20519;-63
2022/11/25 05:18:25;;;;;;;11.67;4.60;;;;;;;5.22;99.46;99907.00;5081141;28;20516;-64
2022/11/25 05:20:51;;;;;;;6.40;4.23;;;;;;;5.20;99.53;99920.38;5083977;28;20506;-63
2022/11/25 05:23:18;;;;;;;19.47;5.43;;;;;;;5.22;99.65;99923.75;5093274;28;20524;-63
2022/11/25 05:25:45;;;;;;;15.73;4.87;;;;;;;5.28;99.46;99918.00;5081654;28;20564;-63
2022/11/25 05:28:11;;;;;;;12.10;5.10;;;;;;;5.21;99.48;99915.94;5079328;28;20444;-63
2022/11/25 05:30:39;;;;;;;13.83;5.37;;;;;;;5.33;99.35;99911.50;5068623;28;20504;-63
2022/11/25 05:33:06;;;;;;;10.67;5.07;;;;;;;5.30;99.45;99915.22;5086064;28;20455;-70
2022/11/25 05:35:33;;;;;;;8.83;4.20;;;;;;;5.22;99.58;99913.13;5081868;28;20479;-70
2022/11/25 05:38:02;;;;;;;10.03;4.73;;;;;;;5.31;99.81;99908.94;5080650;28;20531;-71
2022/11/25 05:40:29;;;;;;;12.27;5.97;;;;;;;5.22;100.00;99914.94;5073103;28;21064;-66
2022/11/25 05:42:56;;;;;;;13.13;5.13;;;;;;;5.27;100.00;99916.28;5072119;28;20551;-66
2022/11/25 05:45:22;;;;;;;11.70;4.97;;;;;;;5.37;100.00;99916.47;5098161;28;20475;-65
2022/11/25 05:47:50;;;;;;;12.23;5.33;;;;;;;5.21;100.00;99910.63;5086011;28;20444;-66
2022/11/25 05:50:17;;;;;;;11.80;5.03;;;;;;;5.34;100.00;99915.84;5072279;28;20449;-65
2022/11/25 05:52:43;;;;;;;7.03;4.10;;;;;;;5.27;100.00;99912.81;5066606;28;20520;-65
2022/11/25 05:55:10;;;;;;;18.03;5.40;;;;;;;5.34;100.00;99915.84;5089652;28;20474;-65
2022/11/25 05:57:37;;;;;;;15.50;6.57;;;;;;;5.21;100.00;99919.41;5080817;28;20460;-65
2022/11/25 06:00:04;;;;;;;10.80;5.37;;;;;;;5.30;100.00;99925.00;5084129;28;20494;-65
2022/11/25 06:02:30;;;;;;;17.43;5.27;;;;;;;5.34;100.00;99929.09;5103976;28;20475;-67
2022/11/25 06:04:58;;;;;;;16.60;5.30;;;;;;;5.39;100.00;99932.25;5089723;28;20452;-66
2022/11/25 06:07:25;;;;;;;14.50;6.10;;;;;;;5.50;100.00;99932.28;5085635;28;20504;-66
2022/11/25 06:09:52;;;;;;;11.33;5.93;;;;;;;5.38;100.00;99920.81;5103037;28;20452;-67
2022/11/25 06:12:20;;;;;;;10.70;5.27;;;;;;;5.34;100.00;99926.44;5092850;28;20515;-66
2022/11/25 06:14:47;;;;;;;10.47;5.83;;;;;;;5.34;100.00;99929.94;5091524;28;20967;-65
2022/11/25 06:17:13;;;;;;;12.37;5.57;;;;;;;5.31;100.00;99931.97;5079148;28;20500;-65
2022/11/25 06:19:40;;;;;;;14.67;6.53;;;;;;;5.49;100.00;99932.41;5082840;28;20484;-65
2022/11/25 06:22:08;;;;;;;14.00;6.00;;;;;;;5.40;100.00;99940.09;5086491;28;20576;-65
2022/11/25 06:24:34;;;;;;;12.53;6.33;;;;;;;5.44;100.00;99938.06;5082591;28;20436;-66
2022/11/25 06:27:01;;;;;;;12.70;6.03;;;;;;;5.51;100.00;99946.41;5085418;28;20566;-64
2022/11/25 06:29:28;;;;;;;13.80;7.70;;;;;;;5.46;100.00;99950.22;5096554;28;20491;-65
2022/11/25 06:31:54;;;;;;;15.90;7.53;;;;;;;5.44;100.00;99946.84;5083424;28;20522;-64
2022/11/25 06:34:21;;;;;;;15.00;5.60;;;;;;;5.52;100.00;99943.63;5097448;28;20482;-65
2022/11/25 06:36:48;;;;;;;12.33;5.60;;;;;;;5.60;100.00;99946.53;5090455;28;20512;-65
2022/11/25 06:39:16;;;;;;;20.97;7.37;;;;;;;5.66;100.00;99947.91;5089111;28;21046;-65
2022/11/25 06:41:43;;;;;;;14.30;5.70;;;;;;;5.65;100.00;99946.19;5083041;28;20559;-65
2022/11/25 06:44:10;;;;;;;18.00;6.77;;;;;;;5.62;100.00;99954.38;5083086;28;20440;-65
2022/11/25 06:46:36;;;;;;;13.60;6.93;;;;;;;5.70;100.00;99954.66;5082860;28;20496;-65
2022/11/25 06:49:03;;;;;;;13.03;6.30;;;;;;;5.74;100.00;99953.44;5102619;28;20478;-65
2022/11/25 06:51:30;;;;;;;17.27;8.30;;;;;;;5.69;100.00;99957.41;5089654;28;20479;-65
2022/11/25 06:53:56;;;;;;;16.83;8.67;;;;;;;5.74;100.00;99955.25;5083054;28;21051;-65
2022/11/25 06:56:26;;;;;;;13.20;7.20;;;;;;;5.75;100.00;99963.09;5082566;28;20507;-65
2022/11/25 06:58:54;;;;;;;17.77;9.10;;;;;;;5.74;100.00;99958.75;5083110;28;20487;-65
2022/11/25 07:01:22;;;;;;;14.63;7.83;;;;;;;5.75;100.00;99968.41;5084838;28;20518;-65
2022/11/25 07:03:50;;;;;;;11.93;8.77;;;;;;;5.77;100.00;99969.13;5090966;28;20475;-65
2022/11/25 07:06:18;;;;;;;17.40;7.70;;;;;;;5.80;100.00;99963.59;5081648;28;20472;-65
2022/11/25 07:08:45;;;;;;;11.40;7.13;;;;;;;5.76;100.00;99969.25;5082657;28;20491;-65
2022/11/25 07:11:14;;;;;;;19.80;9.43;;;;;;;5.88;100.00;99963.00;5091848;28;20488;-65
2022/11/25 07:13:42;;;;;;;15.73;8.40;;;;;;;5.85;100.00;99974.69;5083685;28;20479;-65
2022/11/25 07:16:10;;;;;;;14.90;7.80;;;;;;;5.96;100.00;99973.91;5080531;28;21256;-64
2022/11/25 07:18:38;;;;;;;18.27;7.50;;;;;;;5.92;100.00;99982.19;5080652;28;20487;-65
2022/11/25 07:21:06;;;;;;;10.37;7.70;;;;;;;5.97;100.00;99982.69;5092990;28;20821;-65
2022/11/25 07:23:33;;;;;;;20.33;7.40;;;;;;;5.98;100.00;99984.41;5101811;28;20442;-65
2022/11/25 07:26:04;;;;;;;15.50;6.70;;;;;;;6.00;100.00;99985.13;5096317;28;20552;-65
2022/11/25 07:28:31;;;;;;;18.63;9.20;;;;;;;5.95;100.00;99988.09;5081253;28;20452;-64
2022/11/25 07:31:06;;;;;;;14.80;7.20;;;;;;;6.06;100.00;99995.28;5092199;28;20514;-67
2022/11/25 07:33:33;;;;;;;14.83;5.77;;;;;;;6.14;100.00;100000.81;5095780;28;20471;-65
2022/11/25 07:36:02;;;;;;;19.80;7.37;;;;;;;6.32;100.00;100005.66;5082143;28;20476;-67
2022/11/25 07:38:29;;;;;;;9.20;5.53;;;;;;;6.36;100.00;100005.31;5082570;28;20918;-67
2022/11/25 07:40:55;;;;;;;11.40;6.40;;;;;;;6.49;100.00;99994.59;5079665;28;20503;-66
2022/11/25 07:43:22;;;;;;;9.60;6.50;;;;;;;6.59;100.00;100005.31;5082006;28;20464;-67
2022/11/25 07:45:49;;;;;;;14.00;6.20;;;;;;;6.63;100.00;100013.91;5080595;28;20540;-68
2022/11/25 07:48:17;;;;;;;11.07;5.57;;;;;;;6.71;100.00;100028.25;5077009;28;20476;-67
2022/11/25 07:50:44;;;;;;;17.30;8.07;;;;;;;6.75;100.00;100024.41;5081554;28;20492;-67
2022/11/25 07:53:11;;;;;;;14.93;6.47;;;;;;;6.79;100.00;100025.84;5089911;28;20481;-66
2022/11/25 07:55:38;;;;;;;14.97;5.70;;;;;;;6.74;100.00;100029.84;5080943;28;20464;-67
2022/11/25 07:58:04;;;;;;;14.40;6.50;;;;;;;6.76;100.00;100028.75;5095267;28;20471;-67
2022/11/25 08:00:31;;;;;;;10.83;7.67;;;;;;;6.72;100.00;100032.63;5092322;28;21550;-67
2022/11/25 08:02:57;;;;;;;12.40;5.87;;;;;;;6.76;100.00;100028.75;5089190;28;20473;-67
2022/11/25 08:05:25;;;;;;;10.77;6.30;;;;;;;6.87;100.00;100032.38;5077707;28;20486;-67
2022/11/25 08:07:52;;;;;;;15.30;6.13;;;;;;;6.90;100.00;100032.97;5080949;28;20441;-67
2022/11/25 08:10:19;;;;;;;18.93;7.00;;;;;;;6.99;100.00;100042.00;5080292;28;21038;-67
2022/11/25 08:12:45;;;;;;;22.10;7.90;;;;;;;7.09;100.00;100042.13;5080211;28;20468;-67
2022/11/25 08:15:12;;;;;;;13.57;5.83;;;;;;;7.13;100.00;100049.75;5079944;28;20452;-67
2022/11/25 08:17:38;;;;;;;19.07;8.30;;;;;;;6.98;100.00;100046.50;5085522;28;20476;-67
2022/11/25 08:20:07;;;;;;;19.47;7.10;;;;;;;7.10;100.00;100055.31;5090880;28;20579;-68
2022/11/25 08:22:34;;;;;;;13.73;8.47;;;;;;;7.08;100.00;100057.25;5079748;28;20484;-68
2022/11/25 08:25:01;;;;;;;12.10;5.97;;;;;;;7.19;100.00;100058.16;5081115;28;20475;-68
2022/11/25 08:27:28;;;;;;;8.73;4.33;;;;;;;7.29;100.00;100069.75;5074575;28;20484;-67
2022/11/25 08:29:54;;;;;;;14.57;5.23;;;;;;;7.48;100.00;100067.31;5085474;28;20457;-67
2022/11/25 08:32:21;;;;;;;13.43;6.50;;;;;;;7.41;100.00;100074.06;5079982;28;20472;-66
2022/11/25 08:34:47;;;;;;;12.97;5.00;;;;;;;7.71;100.00;100077.88;5062849;28;20449;-66
2022/11/25 08:37:14;;;;;;;11.17;4.67;;;;;;;7.71;100.00;100081.38;5076555;28;20495;-67
2022/11/25 08:39:42;;;;;;;11.63;5.27;;;;;;;7.98;100.00;100081.88;5099716;28;20470;-67
2022/11/25 08:42:09;;;;;;;18.67;6.00;;;;;;;7.96;100.00;100078.50;5079008;28;20518;-66
2022/11/25 08:44:36;;;;;;;17.67;5.60;;;;;;;8.06;100.00;100087.41;5073725;28;20464;-67
2022/11/25 08:47:02;;;;;;;15.70;4.13;;;;;;;7.94;100.00;100085.78;5078526;28;20484;-66
2022/11/25 08:49:29;;;;;;;14.57;4.67;;;;;;;7.90;100.00;100082.53;5071072;28;20475;-67
2022/11/25 08:52:36;;;;;;;11.27;4.80;;;;;;;7.91;100.00;100090.38;5069988;28;20484;-67
2022/11/25 08:55:04;;;;;;;14.37;6.00;;;;;;;7.95;100.00;100088.31;5074428;28;20518;-64
2022/11/25 08:57:31;;;;;;;15.03;5.43;;;;;;;7.99;100.00;100095.06;5098416;28;20490;-68
2022/11/25 08:59:58;;;;;;;13.67;5.13;;;;;;;8.02;100.00;100085.97;5077274;28;20536;-65
2022/11/25 09:02:24;;;;;;;15.13;6.07;;;;;;;7.99;100.00;100087.09;5077576;28;20483;-67
2022/11/25 09:04:51;;;;;;;15.80;6.83;;;;;;;8.06;100.00;100090.09;5086686;28;20471;-67
2022/11/25 09:07:18;;;;;;;12.43;5.53;;;;;;;8.05;100.00;100093.69;5084069;28;20489;-68
2022/11/25 09:09:44;;;;;;;13.37;5.43;;;;;;;8.14;100.00;100103.56;5080740;28;20452;-67
2022/11/25 09:12:13;;;;;;;10.90;6.60;;;;;;;8.04;100.00;100097.38;5079150;28;20472;-66
2022/11/25 09:14:40;;;;;;;11.07;5.83;;;;;;;8.07;100.00;100105.94;5081281;28;20532;-67
2022/11/25 09:17:09;;;;;;;13.93;6.13;;;;;;;8.22;100.00;100103.78;5088725;28;20480;-68
2022/11/25 09:19:35;;;;;;;14.30;6.40;;;;;;;8.08;100.00;100104.09;5070668;28;20453;-68
2022/11/25 09:22:02;;;;;;;12.40;5.53;;;;;;;8.15;100.00;100107.09;5065686;28;20510;-66
2022/11/25 09:24:29;;;;;;;10.63;7.20;;;;;;;8.15;100.00;100115.09;5079935;28;20467;-67
2022/11/25 09:26:56;;;;;;;14.20;6.77;;;;;;;8.22;100.00;100125.09;5083379;28;20475;-68
2022/11/25 09:29:24;;;;;;;21.63;7.10;;;;;;;8.19;100.00;100121.84;5079480;28;21389;-67
2022/11/25 09:31:50;;;;;;;13.67;6.80;;;;;;;8.10;100.00;100120.78;5081676;28;20493;-66
2022/11/25 09:34:17;;;;;;;19.10;6.93;;;;;;;8.13;100.00;100130.34;5069911;28;20462;-67
2022/11/25 09:36:44;;;;;;;16.43;8.50;;;;;;;8.26;100.00;100131.88;5078057;28;20480;-66
2022/11/25 09:39:10;;;;;;;18.13;7.40;;;;;;;8.27;100.00;100122.06;5072423;28;20540;-68
2022/11/25 09:47:38;;;;;;;10.90;6.80;;;;;;;8.41;100.00;100134.22;5065444;28;20507;-68
2022/11/25 09:50:12;;;;;;;11.17;7.07;;;;;;;8.42;100.00;100133.22;5067544;28;20489;-66
2022/11/25 09:52:48;;;;;;;12.57;7.33;;;;;;;8.37;100.00;100141.63;5059284;28;20555;-64
2022/11/25 09:55:17;;;;;;;13.50;7.30;;;;;;;8.38;100.00;100142.44;5059380;28;20485;-66
2022/11/25 09:57:54;;;;;;;15.77;7.70;;;;;;;8.49;100.00;100139.78;5075686;28;20526;-68
2022/11/25 10:00:23;;;;;;;10.00;6.83;;;;;;;8.52;100.00;100133.31;5079492;28;20476;-68
2022/11/25 10:02:59;;;;;;;13.67;7.03;;;;;;;8.50;100.00;100135.28;5078335;28;21053;-67
2022/11/25 10:05:27;;;;;;;16.90;7.13;;;;;;;8.58;100.00;100135.47;5071973;28;20452;-67
2022/11/25 10:07:56;;;;;;;10.50;6.20;;;;;;;8.73;100.00;100134.19;5078680;28;20445;-66
2022/11/25 10:10:26;;;;;;;11.03;6.40;;;;;;;8.78;100.00;100142.59;5064833;28;20503;-66
2022/11/25 10:12:54;;;;;;;16.30;7.27;;;;;;;8.96;100.00;100137.50;5080004;28;20441;-67
2022/11/25 10:15:26;;;;;;;15.07;8.20;;;;;;;8.80;100.00;100135.34;5078709;28;20495;-68
2022/11/25 10:17:56;;;;;;;13.90;7.03;;;;;;;8.98;100.00;100135.56;5068858;28;20472;-66
2022/11/25 10:20:24;;;;;;;10.73;7.30;;;;;;;9.54;100.00;100142.22;5064268;28;20490;-64
2022/11/25 10:22:53;;;;;;;9.70;7.27;;;;;;;10.22;95.41;100135.25;5078895;28;20503;-67
2022/11/25 10:25:21;;;;;;;11.17;6.90;;;;;;;10.26;93.64;100125.97;5063924;28;20480;-66
2022/11/25 10:27:52;;;;;;;14.37;6.20;;;;;;;10.33;93.26;100136.00;5068946;28;20449;-67
2022/11/25 10:30:20;;;;;;;11.73;7.00;;;;;;;10.36;92.34;100125.03;5076857;28;20939;-67
2022/11/25 10:32:52;;;;;;;12.77;6.37;;;;;;;11.44;86.98;100124.66;5077243;28;20506;-67
2022/11/25 10:35:26;;;;;;;7.40;5.00;;;;;;;11.17;85.74;100133.53;5076225;28;20455;-68
2022/11/25 10:37:55;;;;;;;10.13;4.60;;;;;;;11.14;86.12;100149.88;5082403;28;20463;-68
2022/11/25 10:40:22;;;;;;;7.13;5.27;;;;;;;12.56;82.04;100152.91;5081230;28;20831;-68
2022/11/25 10:42:49;;;;;;;9.77;5.50;;;;;;;14.31;72.13;100153.31;5073100;28;20475;-67
2022/11/25 10:45:15;;;;;;;10.00;4.33;;;;;;;15.26;68.14;100154.59;5082040;28;20984;-66
2022/11/25 10:48:04;;;;;;;7.47;3.93;;;;;;;16.50;62.32;100158.25;5081655;28;20458;-66
2022/11/25 10:50:36;;;;;;;8.00;3.70;;;;;;;17.19;59.19;100156.47;5080280;28;21057;-68
2022/11/25 10:53:10;;;;;;;8.13;4.23;;;;;;;15.99;61.47;100172.28;5066548;28;20444;-66
2022/11/25 10:55:37;;;;;;;6.90;3.90;;;;;;;14.47;68.03;100178.56;5081419;28;20483;-66
2022/11/25 10:58:21;;;;;;;11.63;4.97;;;;;;;12.63;76.53;100170.06;5082306;28;20483;-68
2022/11/25 11:01:14;;;;;;;9.23;4.03;;;;;;;12.68;78.31;100173.13;5081254;28;20479;-67
2022/11/25 11:03:43;;;;;;;11.80;4.50;;;;;;;11.91;80.49;100170.09;5074561;28;20543;-67
2022/11/25 11:06:30;;;;;;;9.50;4.10;;;;;;;11.27;83.94;100177.16;5090116;28;21008;-67
2022/11/25 11:08:57;;;;;;;5.53;4.20;;;;;;;10.90;86.88;100180.63;5077446;28;20531;-68
2022/11/25 11:11:24;;;;;;;7.17;4.97;;;;;;;10.98;87.98;100177.25;5081235;28;20482;-67
2022/11/25 11:13:58;;;;;;;9.47;4.80;;;;;;;10.88;89.31;100172.78;5076172;28;20449;-66
2022/11/25 11:16:28;;;;;;;12.83;5.40;;;;;;;11.27;86.92;100171.81;5070901;28;20916;-67
2022/11/25 11:18:57;;;;;;;10.30;4.77;;;;;;;11.68;85.41;100178.53;5073987;28;20448;-67
2022/11/25 11:21:28;;;;;;;8.90;5.53;;;;;;;12.14;84.41;100173.16;5080190;28;20473;-67
2022/11/25 11:23:56;;;;;;;8.40;5.00;;;;;;;12.29;82.50;100176.16;5087469;28;21008;-68
2022/11/25 11:26:24;;;;;;;9.47;5.40;;;;;;;12.94;80.96;100181.19;5079614;28;20490;-64
2022/11/25 11:29:01;;;;;;;10.23;5.70;;;;;;;12.75;79.85;100182.22;5092015;28;20448;-68
2022/11/25 11:31:32;;;;;;;9.67;4.33;;;;;;;11.61;82.81;100176.56;5081275;28;20472;-67
2022/11/25 11:34:08;;;;;;;7.87;5.33;;;;;;;12.56;79.60;100182.41;5080226;28;20475;-66
2022/11/25 11:36:42;;;;;;;7.90;4.57;;;;;;;12.24;80.97;100181.97;5086547;28;20557;-67
2022/11/25 11:39:21;;;;;;;9.37;5.10;;;;;;;12.26;80.63;100181.00;5085013;28;20495;-68
2022/11/25 11:41:52;;;;;;;7.03;4.87;;;;;;;12.44;81.13;100181.81;5080551;28;20476;-67